Kine — C6WT4 — position and weather

sailwx.info

Track history (hours):
 
Tides and Currents Weather Stations Pressure Air Temp Water Temp Dewpoint Dewpoint Depression Visibility Wind Speed Wind Dir Waves Ship Positions

Kine

Last reported at 2014-Oct-30 16:33 UTC. Time now 2014-Oct-30 16:52 UTC.
Position N 55°59' E 012°38'.

Length 89 m; draft 4.9 m.

Type: Cargo ship. MMSI: 311117000.

Date/timePositionNaut miles runAvg speedWind from/ knotsBaromVisibWave heightAir tempDewpointWater temp
2014-Oct-30 16:33N 55°59' E 012°38'9 8.6
2014-Oct-30 15:33N 56°07' E 012°31'1010.1
2014-Oct-30 14:33N 56°12' E 012°16'10 9.8
2014-Oct-30 13:33N 56°19' E 012°03'21 9.8
2014-Oct-30 11:25N 56°39' E 011°54'8 9.3
2014-Oct-30 10:33N 56°47' E 011°51'10 9.6
2014-Oct-30 09:33N 56°56' E 011°44'19 9.2
2014-Oct-30 07:30N 57°13' E 011°32'9 9.5
2014-Oct-30 06:33N 57°22' E 011°26'9 9.4
2014-Oct-30 05:33N 57°30' E 011°16'9 9.4
2014-Oct-30 04:33N 57°36' E 011°04'9 9.3
2014-Oct-30 03:33N 57°43' E 010°51'9 9.2
2014-Oct-30 02:33N 57°48' E 010°37'135 9.0
2014-Oct-29 11:33N 58°07' E 006°25'9 9.5
2014-Oct-29 10:33N 58°13' E 006°12'9 9.2
2014-Oct-29 09:33N 58°19' E 005°59'9 9.2
2014-Oct-29 08:33N 58°25' E 005°46'10 9.0
2014-Oct-29 07:28N 58°32' E 005°33'17 9.0
2014-Oct-29 05:33N 58°47' E 005°15'8 8.0
2014-Oct-29 04:33N 58°54' E 005°08'8 7.8
2014-Oct-29 03:33N 59°01' E 004°60'  
2014-Oct-24 12:07N 66°17' E 012°17'5 9.3
2014-Oct-24 11:33N 66°15' E 012°29'5 0.2
2014-Oct-23 12:33N 66°13' E 012°40'6 5.9
2014-Oct-23 11:33N 66°15' E 012°25'4 4.1
2014-Oct-23 10:33N 66°17' E 012°16'7 4.9
2014-Oct-23 09:12N 66°21' E 012°03'4 5.7
2014-Oct-23 08:33N 66°23' E 011°57'5 4.9
2014-Oct-23 07:33N 66°28' E 011°53'4 4.2
2014-Oct-23 06:33N 66°32' E 011°54'5 4.8
2014-Oct-23 05:33N 66°36' E 011°58'81 6.1
2014-Oct-22 16:09N 67°41' E 014°07'3 5.3
2014-Oct-22 15:30N 67°43' E 014°12'  
Track history (hours):
 
Tides and Currents Weather Stations Pressure Air Temp Water Temp Dewpoint Dewpoint Depression Visibility Wind Speed Wind Dir Waves Ship Positions

Kine

Last reported at 2014-Oct-30 16:33 UTC. Time now 2014-Oct-30 16:52 UTC.
Position N 55°59' E 012°38'.

Length 89 m; draft 4.9 m.

Type: Cargo ship. MMSI: 311117000.

Date/timePositionNaut miles runAvg speedWind from/ knotsBaromVisibWave heightAir tempDewpointWater temp
2014-Oct-30 16:33N 55°59' E 012°38'9 8.6
2014-Oct-30 15:33N 56°07' E 012°31'1010.1
2014-Oct-30 14:33N 56°12' E 012°16'10 9.8
2014-Oct-30 13:33N 56°19' E 012°03'21 9.8
2014-Oct-30 11:25N 56°39' E 011°54'8 9.3
2014-Oct-30 10:33N 56°47' E 011°51'10 9.6
2014-Oct-30 09:33N 56°56' E 011°44'19 9.2
2014-Oct-30 07:30N 57°13' E 011°32'9 9.5
2014-Oct-30 06:33N 57°22' E 011°26'9 9.4
2014-Oct-30 05:33N 57°30' E 011°16'9 9.4
2014-Oct-30 04:33N 57°36' E 011°04'9 9.3
2014-Oct-30 03:33N 57°43' E 010°51'9 9.2
2014-Oct-30 02:33N 57°48' E 010°37'135 9.0
2014-Oct-29 11:33N 58°07' E 006°25'9 9.5
2014-Oct-29 10:33N 58°13' E 006°12'9 9.2
2014-Oct-29 09:33N 58°19' E 005°59'9 9.2
2014-Oct-29 08:33N 58°25' E 005°46'10 9.0
2014-Oct-29 07:28N 58°32' E 005°33'17 9.0
2014-Oct-29 05:33N 58°47' E 005°15'8 8.0
2014-Oct-29 04:33N 58°54' E 005°08'8 7.8
2014-Oct-29 03:33N 59°01' E 004°60'  
2014-Oct-24 12:07N 66°17' E 012°17'5 9.3
2014-Oct-24 11:33N 66°15' E 012°29'5 0.2
2014-Oct-23 12:33N 66°13' E 012°40'6 5.9
2014-Oct-23 11:33N 66°15' E 012°25'4 4.1
2014-Oct-23 10:33N 66°17' E 012°16'7 4.9
2014-Oct-23 09:12N 66°21' E 012°03'4 5.7
2014-Oct-23 08:33N 66°23' E 011°57'5 4.9
2014-Oct-23 07:33N 66°28' E 011°53'4 4.2
2014-Oct-23 06:33N 66°32' E 011°54'5 4.8
2014-Oct-23 05:33N 66°36' E 011°58'81 6.1
2014-Oct-22 16:09N 67°41' E 014°07'3 5.3
2014-Oct-22 15:30N 67°43' E 014°12'  

Dump ship's entire track history